Time;durP1;ratioP1;P1;durP2;ratioP2;P2;SDS_P1;SDS_P2;PMS_P1;PMS_P2;Temp;Humidity;BMP_temperature;BMP_pressure;BME280_temperature;BME280_humidity;BME280_pressure;Samples;Min_cycle;Max_cycle;Signal;HPM_P1;HPM_P2
2022/10/19 00:00:40;;;;;;;5.80;1.53;;;;;;;;;;5088069;28;20268;-70
2022/10/19 00:03:07;;;;;;;7.80;1.40;;;;;;;;;;5088340;28;20263;-70
2022/10/19 00:05:33;;;;;;;6.73;1.30;;;;;;;;;;5087671;28;20273;-70
2022/10/19 00:08:00;;;;;;;7.93;1.80;;;;;;;;;;5071193;28;20254;-70
2022/10/19 00:10:27;;;;;;;8.13;1.50;;;;;;;;;;5085503;28;20185;-70
2022/10/19 00:12:54;;;;;;;9.27;1.70;;;;;;;;;;5074007;28;20258;-71
2022/10/19 00:15:20;;;;;;;4.93;1.20;;;;;;;;;;5064364;28;20194;-71
2022/10/19 00:17:47;;;;;;;8.53;1.50;;;;;;;;;;5084645;28;20193;-70
2022/10/19 00:20:13;;;;;;;5.60;1.00;;;;;;;;;;5074349;28;20254;-70
2022/10/19 00:22:40;;;;;;;6.47;1.13;;;;;;;;;;5069200;28;20564;-70
2022/10/19 00:25:07;;;;;;;7.33;1.40;;;;;;;;;;5088093;28;20260;-69
2022/10/19 00:27:34;;;;;;;7.70;1.60;;;;;;;;;;5092655;28;20215;-70
2022/10/19 00:30:01;;;;;;;5.00;1.10;;;;;;;;;;5092189;28;20916;-70
2022/10/19 00:32:27;;;;;;;6.97;1.13;;;;;;;;;;5090705;28;20193;-70
2022/10/19 00:34:54;;;;;;;4.47;1.20;;;;;;;;;;5092108;28;20193;-71
2022/10/19 00:37:21;;;;;;;5.53;1.37;;;;;;;;;;5089133;28;20323;-71
2022/10/19 00:39:47;;;;;;;6.30;1.13;;;;;;;;;;5065025;28;20201;-69
2022/10/19 00:42:14;;;;;;;6.77;1.60;;;;;;;;;;5090265;28;20197;-70
2022/10/19 00:44:41;;;;;;;7.40;1.30;;;;;;;;;;5091072;28;20318;-70
2022/10/19 00:47:07;;;;;;;6.57;1.37;;;;;;;;;;5090370;28;20581;-70
2022/10/19 00:49:35;;;;;;;5.23;1.13;;;;;;;;;;5072709;28;20728;-70
2022/10/19 00:52:03;;;;;;;4.87;1.20;;;;;;;;;;5073611;28;20197;-70
2022/10/19 00:54:33;;;;;;;4.97;1.20;;;;;;;;;;5068556;28;20273;-70
2022/10/19 00:56:59;;;;;;;10.00;1.13;;;;;;;;;;5066421;28;20646;-70
2022/10/19 00:59:26;;;;;;;5.33;1.07;;;;;;;;;;5090055;28;20732;-70
2022/10/19 01:01:52;;;;;;;5.40;1.20;;;;;;;;;;5072077;28;20641;-71
2022/10/19 01:04:19;;;;;;;4.57;1.00;;;;;;;;;;5073747;28;20212;-70
2022/10/19 01:06:46;;;;;;;4.27;0.73;;;;;;;;;;5072182;28;20695;-70
2022/10/19 01:09:13;;;;;;;3.30;0.90;;;;;;;;;;5072536;28;20193;-70
2022/10/19 01:11:45;;;;;;;4.23;0.87;;;;;;;;;;5090150;28;20189;-70
2022/10/19 01:14:30;;;;;;;4.10;0.60;;;;;;;;;;5089309;28;20732;-70
2022/10/19 01:17:16;;;;;;;3.13;0.93;;;;;;;;;;5071653;28;20657;-70
2022/10/19 01:19:55;;;;;;;3.17;0.80;;;;;;;;;;5090050;28;20190;-70
2022/10/19 01:22:32;;;;;;;6.50;1.00;;;;;;;;;;5058393;28;20553;-70
2022/10/19 01:25:17;;;;;;;6.47;1.10;;;;;;;;;;5072886;28;20621;-70
2022/10/19 01:28:08;;;;;;;4.10;0.83;;;;;;;;;;5090407;28;20242;-70
2022/10/19 01:30:41;;;;;;;5.60;0.87;;;;;;;;;;5073688;28;20936;-70
2022/10/19 01:33:11;;;;;;;5.07;0.80;;;;;;;;;;5087260;28;20191;-70
2022/10/19 01:35:39;;;;;;;3.43;0.90;;;;;;;;;;5072998;28;20209;-69
2022/10/19 01:38:08;;;;;;;5.10;1.20;;;;;;;;;;5071455;28;20248;-69
2022/10/19 01:40:40;;;;;;;3.43;1.00;;;;;;;;;;5089762;28;20193;-69
2022/10/19 01:43:10;;;;;;;2.47;0.80;;;;;;;;;;5070757;28;20200;-70
2022/10/19 01:45:41;;;;;;;3.37;0.63;;;;;;;;;;5089005;28;20258;-70
2022/10/19 01:48:12;;;;;;;3.60;0.87;;;;;;;;;;5071305;28;20615;-69
2022/10/19 01:50:45;;;;;;;3.50;0.77;;;;;;;;;;5088927;28;20252;-69
2022/10/19 01:53:11;;;;;;;2.73;0.67;;;;;;;;;;5089579;28;20312;-70
2022/10/19 01:55:39;;;;;;;3.73;1.10;;;;;;;;;;5071765;28;20268;-70
2022/10/19 01:58:06;;;;;;;4.47;0.90;;;;;;;;;;5089163;28;20193;-70
2022/10/19 02:00:36;;;;;;;3.03;0.80;;;;;;;;;;5072420;28;20592;-70
2022/10/19 02:03:02;;;;;;;3.13;0.90;;;;;;;;;;5070830;28;20189;-70
2022/10/19 02:05:29;;;;;;;5.33;0.90;;;;;;;;;;5066904;28;20213;-70
2022/10/19 02:08:03;;;;;;;2.17;0.50;;;;;;;;;;5071028;28;20557;-70
2022/10/19 02:10:30;;;;;;;3.63;0.80;;;;;;;;;;5071344;28;20288;-70
2022/10/19 02:12:56;;;;;;;3.47;0.90;;;;;;;;;;5071712;28;20275;-69
2022/10/19 02:15:24;;;;;;;4.20;1.00;;;;;;;;;;5089149;28;20617;-70
2022/10/19 02:17:51;;;;;;;2.40;0.90;;;;;;;;;;5070845;28;20243;-70
2022/10/19 02:20:18;;;;;;;5.00;1.00;;;;;;;;;;5087746;28;20193;-71
2022/10/19 02:22:44;;;;;;;4.03;0.70;;;;;;;;;;5088180;28;20251;-71
2022/10/19 02:25:11;;;;;;;4.27;0.77;;;;;;;;;;5087845;28;20238;-71
2022/10/19 02:27:39;;;;;;;2.30;0.80;;;;;;;;;;5070076;28;20213;-71
2022/10/19 02:30:06;;;;;;;4.80;1.00;;;;;;;;;;5071886;28;20193;-71
2022/10/19 02:32:32;;;;;;;3.07;0.80;;;;;;;;;;5082549;28;20190;-71
2022/10/19 02:34:59;;;;;;;4.53;1.00;;;;;;;;;;5051232;28;20641;-71
2022/10/19 02:37:26;;;;;;;2.90;0.67;;;;;;;;;;5068429;28;20249;-72
2022/10/19 02:39:53;;;;;;;3.30;0.60;;;;;;;;;;5038798;28;20196;-71
2022/10/19 02:42:57;;;;;;;4.73;1.00;;;;;;;;;;5077415;28;20219;-72
2022/10/19 02:45:24;;;;;;;5.03;0.90;;;;;;;;;;5070888;28;20217;-71
2022/10/19 02:47:54;;;;;;;4.20;0.87;;;;;;;;;;5087195;28;20288;-72
2022/10/19 02:50:20;;;;;;;2.23;0.60;;;;;;;;;;5054161;28;20632;-71
2022/10/19 02:52:47;;;;;;;4.17;0.80;;;;;;;;;;5039170;28;20411;-72
2022/10/19 02:55:13;;;;;;;5.47;0.70;;;;;;;;;;5069673;28;20211;-71
2022/10/19 02:57:40;;;;;;;1.87;0.60;;;;;;;;;;5088442;28;20186;-71
2022/10/19 03:00:07;;;;;;;2.83;0.70;;;;;;;;;;5088120;28;20200;-71
2022/10/19 03:02:33;;;;;;;2.43;0.77;;;;;;;;;;5070620;28;20231;-71
2022/10/19 03:05:00;;;;;;;3.13;0.60;;;;;;;;;;5089222;28;20676;-71
2022/10/19 03:07:26;;;;;;;5.47;0.63;;;;;;;;;;5052338;28;20962;-71
2022/10/19 03:09:53;;;;;;;1.70;0.77;;;;;;;;;;5088214;28;20186;-71
2022/10/19 03:12:22;;;;;;;1.57;0.70;;;;;;;;;;5087191;28;20212;-71
2022/10/19 03:14:48;;;;;;;2.27;0.67;;;;;;;;;;5087640;28;20220;-72
2022/10/19 03:17:15;;;;;;;2.20;0.70;;;;;;;;;;5088339;28;20185;-71
2022/10/19 03:19:41;;;;;;;2.13;0.50;;;;;;;;;;5087847;28;20238;-72
2022/10/19 03:22:08;;;;;;;2.90;0.57;;;;;;;;;;5070047;28;20217;-72
2022/10/19 03:24:35;;;;;;;1.97;0.50;;;;;;;;;;5087899;28;20189;-72
2022/10/19 03:27:01;;;;;;;2.97;0.70;;;;;;;;;;5081861;28;20244;-73
2022/10/19 03:29:28;;;;;;;1.97;0.60;;;;;;;;;;5053868;28;20205;-71
2022/10/19 03:31:54;;;;;;;1.50;0.70;;;;;;;;;;5076094;28;20221;-71
2022/10/19 03:34:21;;;;;;;2.63;0.60;;;;;;;;;;5081658;28;20200;-72
2022/10/19 03:36:48;;;;;;;4.47;0.60;;;;;;;;;;5080129;28;20263;-73
2022/10/19 03:39:14;;;;;;;2.77;0.90;;;;;;;;;;5079148;28;20188;-71
2022/10/19 03:41:41;;;;;;;2.67;0.60;;;;;;;;;;5077585;28;20209;-73
2022/10/19 03:44:08;;;;;;;3.63;0.80;;;;;;;;;;5061912;28;20357;-74
2022/10/19 03:46:35;;;;;;;3.20;0.50;;;;;;;;;;5058090;28;20351;-73
2022/10/19 03:49:02;;;;;;;1.60;0.50;;;;;;;;;;5079609;28;20198;-71
2022/10/19 03:51:29;;;;;;;3.37;0.97;;;;;;;;;;5064631;28;20197;-71
2022/10/19 03:54:14;;;;;;;3.23;0.70;;;;;;;;;;5038385;28;20233;-72
2022/10/19 03:56:41;;;;;;;1.70;0.53;;;;;;;;;;5085066;28;20251;-71
2022/10/19 03:59:10;;;;;;;1.17;0.53;;;;;;;;;;5078915;28;20288;-72
2022/10/19 04:01:37;;;;;;;4.03;0.50;;;;;;;;;;5050186;28;20696;-72
2022/10/19 04:04:12;;;;;;;1.80;0.60;;;;;;;;;;5063850;28;20182;-72
2022/10/19 04:06:39;;;;;;;1.47;0.40;;;;;;;;;;5065172;28;20213;-74
2022/10/19 04:09:06;;;;;;;1.53;0.47;;;;;;;;;;5081957;28;20270;-75
2022/10/19 04:11:33;;;;;;;1.80;0.60;;;;;;;;;;5077347;28;20202;-72
2022/10/19 04:13:59;;;;;;;4.77;0.60;;;;;;;;;;5079346;28;20205;-74
2022/10/19 04:16:27;;;;;;;1.17;0.63;;;;;;;;;;5048071;28;20985;-74
2022/10/19 04:18:54;;;;;;;1.73;0.40;;;;;;;;;;5073398;28;20194;-72
2022/10/19 04:21:21;;;;;;;1.50;0.40;;;;;;;;;;5082854;28;20219;-71
2022/10/19 04:23:48;;;;;;;2.33;0.50;;;;;;;;;;5081798;28;20715;-72
2022/10/19 04:26:15;;;;;;;2.63;0.50;;;;;;;;;;5064237;28;20216;-72
2022/10/19 04:28:42;;;;;;;2.20;0.57;;;;;;;;;;5044705;28;20229;-72
2022/10/19 04:31:09;;;;;;;3.90;0.60;;;;;;;;;;5077688;28;20194;-73
2022/10/19 04:33:36;;;;;;;1.07;0.40;;;;;;;;;;5062489;28;20675;-71
2022/10/19 04:36:07;;;;;;;0.87;0.30;;;;;;;;;;5068623;28;20229;-71
2022/10/19 04:38:33;;;;;;;0.40;0.30;;;;;;;;;;5067016;28;20230;-71
2022/10/19 04:41:01;;;;;;;1.37;0.50;;;;;;;;;;5084895;28;20278;-71
2022/10/19 04:43:28;;;;;;;0.83;0.37;;;;;;;;;;5072500;28;20194;-70
2022/10/19 04:45:55;;;;;;;1.77;0.30;;;;;;;;;;5087006;28;20253;-71
2022/10/19 04:48:21;;;;;;;1.13;0.40;;;;;;;;;;5081598;28;20587;-71
2022/10/19 04:50:48;;;;;;;1.23;0.30;;;;;;;;;;5083352;28;20740;-70
2022/10/19 04:53:18;;;;;;;0.70;0.40;;;;;;;;;;5084069;28;20213;-70
2022/10/19 04:55:45;;;;;;;2.13;0.43;;;;;;;;;;5081299;28;20334;-71
2022/10/19 04:58:12;;;;;;;3.40;0.60;;;;;;;;;;5077810;28;20244;-71
2022/10/19 05:00:38;;;;;;;2.40;0.60;;;;;;;;;;5077930;28;20313;-74
2022/10/19 05:03:06;;;;;;;2.83;0.77;;;;;;;;;;5070751;28;20183;-75
2022/10/19 05:05:33;;;;;;;3.03;0.70;;;;;;;;;;5062619;28;20212;-71
2022/10/19 05:08:00;;;;;;;6.03;0.60;;;;;;;;;;5064418;28;20276;-73
2022/10/19 05:10:27;;;;;;;3.47;0.70;;;;;;;;;;5046828;28;20189;-68
2022/10/19 05:12:54;;;;;;;1.83;0.70;;;;;;;;;;5081019;28;20225;-71
2022/10/19 05:15:20;;;;;;;1.73;0.70;;;;;;;;;;5079319;28;20193;-69
2022/10/19 05:17:47;;;;;;;2.47;0.80;;;;;;;;;;5080361;28;20284;-69
2022/10/19 05:20:14;;;;;;;3.87;1.00;;;;;;;;;;5062338;28;20654;-70
2022/10/19 05:22:41;;;;;;;2.10;0.90;;;;;;;;;;5062009;28;20982;-71
2022/10/19 05:25:08;;;;;;;1.80;0.80;;;;;;;;;;5075575;28;20209;-71
2022/10/19 05:27:35;;;;;;;2.87;0.97;;;;;;;;;;5080532;28;20315;-69
2022/10/19 05:30:02;;;;;;;2.33;1.00;;;;;;;;;;5082091;28;20228;-69
2022/10/19 05:32:29;;;;;;;3.23;1.00;;;;;;;;;;5081518;28;20181;-69
2022/10/19 05:34:56;;;;;;;1.87;0.77;;;;;;;;;;5063072;28;20261;-70
2022/10/19 05:37:24;;;;;;;1.60;0.80;;;;;;;;;;5066466;28;20316;-73
2022/10/19 05:39:53;;;;;;;5.40;0.90;;;;;;;;;;5091548;28;20191;-77
2022/10/19 05:42:19;;;;;;;4.40;1.30;;;;;;;;;;5072848;28;20673;-73
2022/10/19 05:44:46;;;;;;;2.67;0.80;;;;;;;;;;5073067;28;20185;-73
2022/10/19 05:47:13;;;;;;;1.90;0.60;;;;;;;;;;5071774;22;20235;-72
2022/10/19 05:49:40;;;;;;;2.87;0.63;;;;;;;;;;5029254;28;20559;-73
2022/10/19 05:52:06;;;;;;;5.77;0.83;;;;;;;;;;5030804;28;20199;-73
2022/10/19 05:54:34;;;;;;;1.47;0.70;;;;;;;;;;5030866;28;20656;-73
2022/10/19 05:57:01;;;;;;;0.70;0.50;;;;;;;;;;5030767;28;20297;-73
2022/10/19 05:59:28;;;;;;;1.13;0.60;;;;;;;;;;5039740;28;20190;-72
2022/10/19 06:01:54;;;;;;;2.83;0.90;;;;;;;;;;5049270;28;20228;-74
2022/10/19 06:04:21;;;;;;;1.30;0.70;;;;;;;;;;5048445;28;20191;-74
2022/10/19 06:06:48;;;;;;;1.30;0.50;;;;;;;;;;5042048;28;20933;-72
2022/10/19 06:09:15;;;;;;;1.80;0.70;;;;;;;;;;5028354;28;20263;-74
2022/10/19 06:11:42;;;;;;;2.30;1.17;;;;;;;;;;5049440;28;21003;-71
2022/10/19 06:14:12;;;;;;;2.27;0.90;;;;;;;;;;5028374;28;20200;-71
2022/10/19 06:16:39;;;;;;;2.67;0.90;;;;;;;;;;5048983;28;20191;-71
2022/10/19 06:19:06;;;;;;;3.83;1.17;;;;;;;;;;5038733;28;21030;-70
2022/10/19 06:21:32;;;;;;;1.60;0.70;;;;;;;;;;5032571;28;20196;-72
2022/10/19 06:24:01;;;;;;;1.43;0.70;;;;;;;;;;5036704;28;20242;-73
2022/10/19 06:26:28;;;;;;;2.30;0.70;;;;;;;;;;5048223;28;20221;-73
2022/10/19 06:28:55;;;;;;;2.10;0.83;;;;;;;;;;5050091;28;20662;-74
2022/10/19 06:31:22;;;;;;;3.40;0.87;;;;;;;;;;5045980;28;20202;-71
2022/10/19 06:33:49;;;;;;;3.97;1.00;;;;;;;;;;5032542;28;20235;-72
2022/10/19 06:36:18;;;;;;;3.23;1.20;;;;;;;;;;5044904;28;20203;-72
2022/10/19 06:38:45;;;;;;;2.77;0.90;;;;;;;;;;5030016;28;21067;-73
2022/10/19 06:41:12;;;;;;;5.37;1.40;;;;;;;;;;5028103;28;20265;-69
2022/10/19 06:43:39;;;;;;;2.53;1.27;;;;;;;;;;5044647;28;20200;-72
2022/10/19 06:46:06;;;;;;;4.13;1.07;;;;;;;;;;5029383;28;20228;-72
2022/10/19 06:48:32;;;;;;;4.20;1.30;;;;;;;;;;5047086;28;20947;-74
2022/10/19 06:51:00;;;;;;;4.27;1.03;;;;;;;;;;5047974;28;20214;-72
2022/10/19 06:53:27;;;;;;;3.33;1.03;;;;;;;;;;5049381;28;20196;-70
2022/10/19 06:55:58;;;;;;;2.83;0.97;;;;;;;;;;5031843;28;20278;-71
2022/10/19 06:58:24;;;;;;;2.03;0.80;;;;;;;;;;5053648;28;20215;-70
2022/10/19 07:00:55;;;;;;;3.53;0.50;;;;;;;;;;5050876;28;20209;-69
2022/10/19 07:03:23;;;;;;;2.20;0.87;;;;;;;;;;5029407;28;20209;-70
2022/10/19 07:05:53;;;;;;;1.40;0.53;;;;;;;;;;5052402;28;20316;-70
2022/10/19 07:08:20;;;;;;;1.77;0.90;;;;;;;;;;5027390;28;20197;-70
2022/10/19 07:10:53;;;;;;;2.90;0.80;;;;;;;;;;5049078;28;20195;-72
2022/10/19 07:13:20;;;;;;;3.47;1.90;;;;;;;;;;5047669;28;20203;-71
2022/10/19 07:15:47;;;;;;;2.03;0.80;;;;;;;;;;5056715;28;20181;-71
2022/10/19 07:18:14;;;;;;;3.23;0.60;;;;;;;;;;5051603;28;20211;-70
2022/10/19 07:20:41;;;;;;;0.73;0.47;;;;;;;;;;5052375;28;21040;-71
2022/10/19 07:23:07;;;;;;;0.50;0.27;;;;;;;;;;5054628;28;20274;-71
2022/10/19 07:25:34;;;;;;;1.83;0.53;;;;;;;;;;5052717;28;20194;-69
2022/10/19 07:28:01;;;;;;;4.87;0.90;;;;;;;;;;5053905;28;20226;-70
2022/10/19 07:30:28;;;;;;;4.67;0.90;;;;;;;;;;5052881;28;20199;-70
2022/10/19 07:32:54;;;;;;;0.60;0.50;;;;;;;;;;5051427;28;20190;-73
2022/10/19 07:35:21;;;;;;;1.43;0.93;;;;;;;;;;5058807;28;20309;-72
2022/10/19 07:37:48;;;;;;;2.57;1.33;;;;;;;;;;5029430;28;20233;-72
2022/10/19 07:40:14;;;;;;;3.43;1.00;;;;;;;;;;5057556;28;20190;-70
2022/10/19 07:42:41;;;;;;;1.43;0.30;;;;;;;;;;5052889;28;20310;-69
2022/10/19 07:45:08;;;;;;;0.60;0.53;;;;;;;;;;5053073;28;20717;-72
2022/10/19 07:47:35;;;;;;;1.30;0.50;;;;;;;;;;5029961;28;20827;-70
2022/10/19 07:50:02;;;;;;;1.67;0.50;;;;;;;;;;5053569;28;20219;-69
2022/10/19 07:52:28;;;;;;;3.23;0.80;;;;;;;;;;5053823;28;20197;-69
2022/10/19 07:55:01;;;;;;;1.20;0.50;;;;;;;;;;5050897;28;20236;-70
2022/10/19 07:57:28;;;;;;;2.03;0.83;;;;;;;;;;5035618;28;20253;-72
2022/10/19 07:59:54;;;;;;;2.00;0.60;;;;;;;;;;5047307;28;20232;-69
2022/10/19 08:02:21;;;;;;;1.23;0.60;;;;;;;;;;5054588;28;20190;-73
2022/10/19 08:04:56;;;;;;;1.53;0.80;;;;;;;;;;5058433;28;20196;-70
2022/10/19 08:07:31;;;;;;;1.70;0.53;;;;;;;;;;5058234;28;20210;-74
2022/10/19 08:09:58;;;;;;;2.00;0.50;;;;;;;;;;5048253;28;20262;-70
2022/10/19 08:12:25;;;;;;;2.03;0.50;;;;;;;;;;5031473;28;20202;-72
2022/10/19 08:14:52;;;;;;;2.57;0.50;;;;;;;;;;5049313;28;20323;-70
2022/10/19 08:17:19;;;;;;;2.27;0.70;;;;;;;;;;5048713;28;20191;-68
2022/10/19 08:19:45;;;;;;;2.50;0.50;;;;;;;;;;5047410;28;20268;-68
2022/10/19 08:22:13;;;;;;;2.43;0.60;;;;;;;;;;5045677;28;20226;-69
2022/10/19 08:24:40;;;;;;;3.13;0.90;;;;;;;;;;5049234;28;20209;-68
2022/10/19 08:27:07;;;;;;;2.00;0.63;;;;;;;;;;5054765;28;20305;-73
2022/10/19 08:29:34;;;;;;;0.97;0.50;;;;;;;;;;5030306;28;20190;-75
2022/10/19 08:32:01;;;;;;;3.10;0.83;;;;;;;;;;5038573;28;20308;-72
2022/10/19 08:34:28;;;;;;;3.13;0.50;;;;;;;;;;5047490;28;20207;-68
2022/10/19 08:36:55;;;;;;;2.63;0.60;;;;;;;;;;5048832;28;20275;-69
2022/10/19 08:39:21;;;;;;;1.80;0.50;;;;;;;;;;5049039;28;21011;-69
2022/10/19 08:41:52;;;;;;;1.57;0.40;;;;;;;;;;5048218;28;20195;-70
2022/10/19 08:44:32;;;;;;;1.03;0.43;;;;;;;;;;5029433;28;20203;-70
2022/10/19 08:47:18;;;;;;;1.87;0.70;;;;;;;;;;5046049;28;20292;-71
2022/10/19 08:49:49;;;;;;;2.67;0.70;;;;;;;;;;5050244;28;20309;-68
2022/10/19 08:52:20;;;;;;;1.00;0.50;;;;;;;;;;5055138;28;20657;-75
2022/10/19 08:54:57;;;;;;;3.00;0.60;;;;;;;;;;5057860;28;20673;-71
2022/10/19 08:57:23;;;;;;;2.63;0.60;;;;;;;;;;5054835;28;20198;-72
2022/10/19 08:59:58;;;;;;;3.00;0.60;;;;;;;;;;5052486;28;20191;-76
2022/10/19 09:02:44;;;;;;;0.97;0.50;;;;;;;;;;5057719;28;21071;-72
2022/10/19 09:05:23;;;;;;;3.97;0.60;;;;;;;;;;5050454;28;20975;-72
2022/10/19 09:07:50;;;;;;;3.57;0.70;;;;;;;;;;5051763;28;21045;-73
2022/10/19 09:10:18;;;;;;;1.87;0.70;;;;;;;;;;5055399;28;20245;-71
2022/10/19 09:12:54;;;;;;;0.77;0.50;;;;;;;;;;5041306;28;20194;-71
2022/10/19 09:15:31;;;;;;;3.40;0.70;;;;;;;;;;5061490;28;20181;-70
2022/10/19 09:17:58;;;;;;;1.57;0.50;;;;;;;;;;5046527;28;20795;-70
2022/10/19 09:20:25;;;;;;;1.47;0.43;;;;;;;;;;5058178;28;20182;-71
2022/10/19 09:22:56;;;;;;;1.77;0.50;;;;;;;;;;5040208;28;20202;-70
2022/10/19 09:25:23;;;;;;;0.50;0.40;;;;;;;;;;5053036;28;20277;-69
2022/10/19 09:27:58;;;;;;;2.87;0.50;;;;;;;;;;5046460;28;20210;-69
2022/10/19 09:30:24;;;;;;;1.00;0.27;;;;;;;;;;5048919;28;20190;-69
2022/10/19 09:32:58;;;;;;;2.30;0.50;;;;;;;;;;5047778;28;20183;-73
2022/10/19 09:35:27;;;;;;;2.60;0.57;;;;;;;;;;5049463;28;20321;-71
2022/10/19 09:37:53;;;;;;;0.80;0.37;;;;;;;;;;5057881;28;20661;-71
2022/10/19 09:40:24;;;;;;;2.20;0.30;;;;;;;;;;5049419;28;20292;-71
2022/10/19 09:42:58;;;;;;;2.30;0.40;;;;;;;;;;5050449;28;20762;-73
2022/10/19 09:45:30;;;;;;;1.23;0.30;;;;;;;;;;5054116;28;20855;-72
2022/10/19 09:47:57;;;;;;;0.20;0.20;;;;;;;;;;5050459;28;20308;-72
2022/10/19 09:50:37;;;;;;;2.10;0.50;;;;;;;;;;5057526;28;20667;-71
2022/10/19 09:53:04;;;;;;;1.67;0.40;;;;;;;;;;5045165;28;20612;-71
2022/10/19 09:55:35;;;;;;;1.73;0.33;;;;;;;;;;5048265;28;20209;-72
2022/10/19 09:58:22;;;;;;;0.83;0.40;;;;;;;;;;5050673;28;20230;-73
2022/10/19 10:00:50;;;;;;;2.53;0.40;;;;;;;;;;5054584;28;20618;-72
2022/10/19 10:03:21;;;;;;;1.87;0.43;;;;;;;;;;5054037;28;20194;-70
2022/10/19 10:05:48;;;;;;;2.97;0.63;;;;;;;;;;5050324;28;20716;-70
2022/10/19 10:08:19;;;;;;;2.30;0.30;;;;;;;;;;5053091;28;20203;-69
2022/10/19 10:10:48;;;;;;;2.03;0.53;;;;;;;;;;5049521;28;20198;-71
2022/10/19 10:13:18;;;;;;;1.37;0.50;;;;;;;;;;5048731;28;20289;-70
2022/10/19 10:15:49;;;;;;;1.30;0.60;;;;;;;;;;5054539;28;20794;-71
2022/10/19 10:18:16;;;;;;;2.87;1.50;;;;;;;;;;5047593;28;20222;-70
2022/10/19 10:20:56;;;;;;;3.07;0.63;;;;;;;;;;5044625;28;20201;-69
2022/10/19 10:23:40;;;;;;;1.53;0.63;;;;;;;;;;5051372;28;20650;-70
2022/10/19 10:26:14;;;;;;;1.73;0.47;;;;;;;;;;5054241;28;20194;-70
2022/10/19 10:28:48;;;;;;;0.83;0.33;;;;;;;;;;5052032;28;20913;-69
2022/10/19 10:31:14;;;;;;;3.77;0.57;;;;;;;;;;5048848;28;20198;-70
2022/10/19 10:33:41;;;;;;;2.63;0.40;;;;;;;;;;5054012;28;20182;-74
2022/10/19 10:36:11;;;;;;;8.87;4.33;;;;;;;;;;5048500;28;20247;-71
2022/10/19 10:38:40;;;;;;;2.30;0.97;;;;;;;;;;5030100;28;20213;-73
2022/10/19 10:41:10;;;;;;;1.20;0.50;;;;;;;;;;5049642;28;20218;-73
2022/10/19 10:43:39;;;;;;;2.73;1.40;;;;;;;;;;5058151;28;20681;-72
2022/10/19 10:46:06;;;;;;;1.30;0.37;;;;;;;;;;5050503;28;20244;-72
2022/10/19 10:48:37;;;;;;;3.47;0.70;;;;;;;;;;5052950;28;20246;-71
2022/10/19 10:51:07;;;;;;;3.43;0.80;;;;;;;;;;5049421;28;20277;-70
2022/10/19 10:53:42;;;;;;;0.97;0.40;;;;;;;;;;5058266;28;20202;-69
2022/10/19 10:56:27;;;;;;;1.90;0.67;;;;;;;;;;5045946;28;20182;-69
2022/10/19 10:58:59;;;;;;;1.50;0.60;;;;;;;;;;5049997;28;20191;-70
2022/10/19 11:01:31;;;;;;;4.17;1.90;;;;;;;;;;5049452;28;20193;-69
2022/10/19 11:04:06;;;;;;;4.00;2.10;;;;;;;;;;5055873;28;20198;-69
2022/10/19 11:06:33;;;;;;;2.63;0.83;;;;;;;;;;5037705;28;20228;-71
2022/10/19 11:09:14;;;;;;;2.30;0.50;;;;;;;;;;5048729;28;20743;-71
2022/10/19 11:11:43;;;;;;;1.80;0.70;;;;;;;;;;5044810;28;20195;-71
2022/10/19 11:14:15;;;;;;;3.03;0.53;;;;;;;;;;5035721;28;20267;-70
2022/10/19 11:16:42;;;;;;;1.90;0.50;;;;;;;;;;5045175;28;20738;-71
2022/10/19 11:19:23;;;;;;;3.03;0.53;;;;;;;;;;5046943;28;20186;-68
2022/10/19 11:21:56;;;;;;;1.90;0.40;;;;;;;;;;5044000;28;20361;-69
2022/10/19 11:24:31;;;;;;;1.23;0.50;;;;;;;;;;5032631;28;20205;-70
2022/10/19 11:27:16;;;;;;;1.37;0.50;;;;;;;;;;5048733;28;20225;-67
2022/10/19 11:29:54;;;;;;;4.50;0.57;;;;;;;;;;5046293;28;20203;-70
2022/10/19 11:32:31;;;;;;;4.10;0.63;;;;;;;;;;5051807;28;20193;-71
2022/10/19 11:35:05;;;;;;;1.70;0.50;;;;;;;;;;5034366;28;20279;-73
2022/10/19 11:37:47;;;;;;;0.67;0.40;;;;;;;;;;5039727;28;20202;-72
2022/10/19 11:40:35;;;;;;;0.67;0.30;;;;;;;;;;5045987;28;20581;-71
2022/10/19 11:43:13;;;;;;;0.97;0.40;;;;;;;;;;5068042;28;20233;-72
2022/10/19 11:45:40;;;;;;;1.73;0.70;;;;;;;;;;5071963;28;20189;-71
2022/10/19 11:48:14;;;;;;;3.40;1.00;;;;;;;;;;5071389;28;20225;-76
2022/10/19 11:50:58;;;;;;;0.87;0.30;;;;;;;;;;5056229;28;20627;-70
2022/10/19 11:53:49;;;;;;;1.27;0.50;;;;;;;;;;5073578;28;20181;-73
2022/10/19 11:56:27;;;;;;;2.20;0.63;;;;;;;;;;5079033;28;20753;-71
2022/10/19 11:59:16;;;;;;;1.90;0.60;;;;;;;;;;5071864;28;20194;-69
2022/10/19 12:01:49;;;;;;;2.37;0.60;;;;;;;;;;5065155;28;20247;-72
2022/10/19 12:04:20;;;;;;;1.33;0.60;;;;;;;;;;5069781;28;20196;-70
2022/10/19 12:06:49;;;;;;;2.10;0.50;;;;;;;;;;5071626;28;20247;-69
2022/10/19 12:09:16;;;;;;;1.63;0.70;;;;;;;;;;5051875;28;20325;-67
2022/10/19 12:11:46;;;;;;;0.63;0.30;;;;;;;;;;5069029;28;20343;-72
2022/10/19 12:14:17;;;;;;;0.87;0.37;;;;;;;;;;5059277;28;20283;-70
2022/10/19 12:16:45;;;;;;;1.80;0.40;;;;;;;;;;5070850;28;20200;-69
2022/10/19 12:19:16;;;;;;;1.53;0.50;;;;;;;;;;5074134;28;20687;-72
2022/10/19 12:21:43;;;;;;;1.30;0.60;;;;;;;;;;5074585;28;20198;-73
2022/10/19 12:24:17;;;;;;;2.20;0.50;;;;;;;;;;5070976;28;20194;-70
2022/10/19 12:26:44;;;;;;;2.07;0.50;;;;;;;;;;5075427;28;20190;-70
2022/10/19 12:29:15;;;;;;;0.40;0.20;;;;;;;;;;5074562;28;20206;-70
2022/10/19 12:31:42;;;;;;;3.30;0.40;;;;;;;;;;5075507;28;20194;-70
2022/10/19 12:34:21;;;;;;;1.13;0.37;;;;;;;;;;5073935;28;20179;-71
2022/10/19 12:36:50;;;;;;;1.83;0.40;;;;;;;;;;5074601;28;20212;-71
2022/10/19 12:39:19;;;;;;;1.67;0.60;;;;;;;;;;5074979;28;20186;-71
2022/10/19 12:41:50;;;;;;;2.33;0.50;;;;;;;;;;5056069;28;21000;-71
2022/10/19 12:44:20;;;;;;;3.83;0.60;;;;;;;;;;5076074;28;20218;-72
2022/10/19 12:46:50;;;;;;;4.27;0.53;;;;;;;;;;5074023;28;20251;-72
2022/10/19 12:49:30;;;;;;;3.50;0.70;;;;;;;;;;5070746;28;20307;-71
2022/10/19 12:51:57;;;;;;;1.70;0.67;;;;;;;;;;5074571;28;20762;-72
2022/10/19 12:54:25;;;;;;;0.90;0.50;;;;;;;;;;5067646;28;20198;-73
2022/10/19 12:56:53;;;;;;;1.40;0.60;;;;;;;;;;5074887;28;20198;-74
2022/10/19 12:59:26;;;;;;;1.57;0.60;;;;;;;;;;5061474;28;20185;-73
2022/10/19 13:01:52;;;;;;;4.60;0.90;;;;;;;;;;5074316;28;20198;-73
2022/10/19 13:04:23;;;;;;;5.30;1.20;;;;;;;;;;5074707;28;20662;-73
2022/10/19 13:07:00;;;;;;;2.23;0.40;;;;;;;;;;5074341;28;20190;-73
2022/10/19 13:09:27;;;;;;;2.70;0.40;;;;;;;;;;5077276;28;20204;-73
2022/10/19 13:12:12;;;;;;;2.40;0.50;;;;;;;;;;5078269;28;20210;-73
2022/10/19 13:14:48;;;;;;;2.37;0.50;;;;;;;;;;5076608;28;20243;-72
2022/10/19 13:17:33;;;;;;;1.37;0.53;;;;;;;;;;5075639;28;20182;-71
2022/10/19 13:20:12;;;;;;;1.03;0.40;;;;;;;;;;5074633;28;20198;-72
2022/10/19 13:22:44;;;;;;;2.03;0.80;;;;;;;;;;5059814;28;20845;-71
2022/10/19 13:25:20;;;;;;;1.80;0.50;;;;;;;;;;5076977;28;20649;-72
2022/10/19 13:27:47;;;;;;;3.23;1.90;;;;;;;;;;5077243;28;20205;-71
2022/10/19 13:30:46;;;;;;;1.53;0.30;;;;;;;;;;5063390;28;20205;-73
2022/10/19 13:33:32;;;;;;;2.23;0.23;;;;;;;;;;5052945;28;20219;-74
2022/10/19 13:35:59;;;;;;;0.83;0.30;;;;;;;;;;5056024;28;21081;-74
2022/10/19 13:38:26;;;;;;;3.20;0.50;;;;;;;;;;5075471;28;20198;-72
2022/10/19 13:41:07;;;;;;;1.67;0.50;;;;;;;;;;5077877;28;20178;-72
2022/10/19 13:43:34;;;;;;;1.63;0.47;;;;;;;;;;5076626;28;20194;-72
2022/10/19 13:46:15;;;;;;;1.77;0.60;;;;;;;;;;5074763;28;20201;-72
2022/10/19 13:48:48;;;;;;;2.93;0.70;;;;;;;;;;5074073;28;20743;-72
2022/10/19 13:51:24;;;;;;;2.47;0.70;;;;;;;;;;5071639;28;20657;-72
2022/10/19 13:54:01;;;;;;;2.47;1.00;;;;;;;;;;5078305;28;20203;-72
2022/10/19 13:56:55;;;;;;;2.33;0.70;;;;;;;;;;5073367;28;20189;-72
2022/10/19 13:59:22;;;;;;;2.13;0.60;;;;;;;;;;5053154;28;20209;-73
2022/10/19 14:01:51;;;;;;;3.27;1.10;;;;;;;;;;5076293;28;20264;-72
2022/10/19 14:04:26;;;;;;;2.17;1.20;;;;;;;;;;5076494;28;20274;-72
2022/10/19 14:07:09;;;;;;;2.47;0.77;;;;;;;;;;5077714;28;20197;-72
2022/10/19 14:09:39;;;;;;;2.93;0.67;;;;;;;;;;5075323;28;20221;-72
2022/10/19 14:12:07;;;;;;;1.10;0.47;;;;;;;;;;5076030;28;20210;-71
2022/10/19 14:14:38;;;;;;;2.60;0.90;;;;;;;;;;5074030;28;20201;-70
2022/10/19 14:17:16;;;;;;;2.10;0.80;;;;;;;;;;5076063;28;20189;-71
2022/10/19 14:19:49;;;;;;;2.30;0.40;;;;;;;;;;5080322;28;20525;-70
2022/10/19 14:22:17;;;;;;;1.63;0.53;;;;;;;;;;5073460;28;20212;-70
2022/10/19 14:24:46;;;;;;;0.53;0.20;;;;;;;;;;5069865;28;20263;-68
2022/10/19 14:27:15;;;;;;;1.40;0.43;;;;;;;;;;5074469;28;20272;-70
2022/10/19 14:29:45;;;;;;;0.83;0.30;;;;;;;;;;5071177;28;20867;-69
2022/10/19 14:32:12;;;;;;;1.47;0.37;;;;;;;;;;5073722;28;20193;-69
2022/10/19 14:34:40;;;;;;;1.70;0.43;;;;;;;;;;5074219;28;20197;-68
2022/10/19 14:37:17;;;;;;;2.97;0.70;;;;;;;;;;5073150;28;20203;-69
2022/10/19 14:40:04;;;;;;;3.53;0.90;;;;;;;;;;5057043;28;20216;-68
2022/10/19 14:42:41;;;;;;;2.77;1.27;;;;;;;;;;5080175;28;20212;-70
2022/10/19 14:45:09;;;;;;;2.33;0.90;;;;;;;;;;5075788;28;20843;-68
2022/10/19 14:47:35;;;;;;;2.43;0.97;;;;;;;;;;5073818;28;20218;-69
2022/10/19 14:50:05;;;;;;;5.17;1.33;;;;;;;;;;5079342;28;20714;-72
2022/10/19 14:52:33;;;;;;;4.07;1.37;;;;;;;;;;5072108;28;21216;-70
2022/10/19 14:55:05;;;;;;;3.10;1.03;;;;;;;;;;5074279;28;20193;-70
2022/10/19 14:57:33;;;;;;;3.23;1.30;;;;;;;;;;5075862;28;20202;-70
2022/10/19 15:00:01;;;;;;;4.03;1.20;;;;;;;;;;5055207;28;20206;-69